Time;durP1;ratioP1;P1;durP2;ratioP2;P2;SDS_P1;SDS_P2;PMS_P1;PMS_P2;Temp;Humidity;BMP_temperature;BMP_pressure;BME280_temperature;BME280_humidity;BME280_pressure;Samples;Min_cycle;Max_cycle;Signal;HPM_P1;HPM_P2
2021/07/13 00:00:04;;;;;;;6.43;2.20;;;21.40;84.20;;;;;;5007704;28;20038;-80
2021/07/13 00:02:30;;;;;;;4.05;2.78;;;21.20;85.00;;;;;;5016540;28;20417;-80
2021/07/13 00:04:55;;;;;;;3.92;2.83;;;21.20;84.80;;;;;;5005029;28;20034;-80
2021/07/13 00:07:21;;;;;;;4.05;2.13;;;21.10;85.10;;;;;;4999597;28;20033;-80
2021/07/13 00:09:48;;;;;;;4.95;2.85;;;21.10;85.60;;;;;;5003623;28;20053;-80
2021/07/13 00:12:13;;;;;;;4.88;2.38;;;21.10;85.80;;;;;;5018987;28;20052;-80
2021/07/13 00:14:39;;;;;;;6.25;2.45;;;21.00;85.90;;;;;;5007130;28;20029;-80
2021/07/13 00:17:07;;;;;;;4.20;3.55;;;21.00;86.10;;;;;;5005108;28;20033;-80
2021/07/13 00:19:34;;;;;;;3.10;2.90;;;21.10;85.50;;;;;;5004992;28;20026;-80
2021/07/13 00:22:00;;;;;;;4.10;3.33;;;21.00;86.30;;;;;;4997900;28;20038;-80
2021/07/13 00:24:26;;;;;;;5.10;2.70;;;21.00;86.00;;;;;;5007049;28;20525;-80
2021/07/13 00:26:52;;;;;;;4.20;2.92;;;21.00;85.90;;;;;;5004026;28;20117;-80
2021/07/13 00:29:18;;;;;;;3.45;2.70;;;21.10;86.30;;;;;;5003587;28;20386;-80
2021/07/13 00:31:43;;;;;;;3.33;2.90;;;21.10;86.20;;;;;;5008956;28;20021;-81
2021/07/13 00:34:09;;;;;;;7.53;3.53;;;21.10;86.30;;;;;;5007289;28;20030;-80
2021/07/13 00:36:34;;;;;;;4.25;2.92;;;21.10;86.40;;;;;;5002173;28;20702;-80
2021/07/13 00:39:00;;;;;;;3.67;3.38;;;21.10;86.80;;;;;;4998041;28;20030;-80
2021/07/13 00:41:25;;;;;;;3.95;2.60;;;21.10;86.80;;;;;;5008268;28;20112;-80
2021/07/13 00:43:51;;;;;;;4.07;3.33;;;21.10;86.70;;;;;;5030064;22;20030;-75
2021/07/13 00:46:16;;;;;;;5.18;3.08;;;21.10;87.40;;;;;;5019846;28;20032;-75
2021/07/13 00:48:42;;;;;;;2.92;2.70;;;21.20;87.70;;;;;;5017337;28;20071;-75
2021/07/13 00:51:10;;;;;;;3.30;3.03;;;21.20;87.60;;;;;;5020358;28;20060;-75
2021/07/13 00:53:38;;;;;;;2.65;2.45;;;21.20;87.30;;;;;;5018049;28;20060;-76
2021/07/13 00:56:04;;;;;;;4.18;2.70;;;21.20;87.00;;;;;;5034177;28;20103;-76
2021/07/13 00:58:29;;;;;;;3.67;2.60;;;21.10;87.30;;;;;;5020704;28;20939;-76
2021/07/13 01:00:55;;;;;;;3.53;2.80;;;21.10;87.90;;;;;;5017937;28;20532;-76
2021/07/13 01:03:20;;;;;;;4.32;3.10;;;21.00;87.10;;;;;;5019296;28;20026;-78
2021/07/13 01:05:48;;;;;;;3.83;2.83;;;21.00;87.40;;;;;;5016871;28;20120;-77
2021/07/13 01:08:42;;;;;;;5.00;2.90;;;20.90;87.30;;;;;;5017370;28;20079;-78
2021/07/13 01:11:31;;;;;;;3.63;3.25;;;20.90;87.70;;;;;;5000671;28;20034;-78
2021/07/13 01:14:09;;;;;;;6.35;3.70;;;20.90;88.00;;;;;;5022831;28;20097;-78
2021/07/13 01:16:48;;;;;;;5.00;3.00;;;20.90;88.60;;;;;;5018332;28;20091;-78
2021/07/13 01:19:37;;;;;;;7.78;2.90;;;20.90;88.80;;;;;;5001892;28;20045;-78
2021/07/13 01:22:12;;;;;;;3.50;3.03;;;20.90;88.40;;;;;;5006730;28;20030;-77
2021/07/13 01:24:56;;;;;;;3.97;2.67;;;20.80;88.70;;;;;;5019496;28;20030;-78
2021/07/13 01:27:47;;;;;;;4.70;3.40;;;20.80;88.70;;;;;;5023172;28;20021;-77
2021/07/13 01:30:28;;;;;;;6.35;2.65;;;20.70;89.00;;;;;;5023561;28;20025;-78
2021/07/13 01:33:09;;;;;;;4.68;2.58;;;20.70;89.30;;;;;;5021844;28;20381;-78
2021/07/13 01:35:42;;;;;;;7.95;2.88;;;20.70;90.00;;;;;;5019549;28;20033;-78
2021/07/13 01:38:09;;;;;;;4.13;3.05;;;20.60;89.80;;;;;;5021268;28;20662;-78
2021/07/13 01:40:36;;;;;;;6.15;3.13;;;20.60;90.00;;;;;;5018258;28;20053;-77
2021/07/13 01:43:03;;;;;;;3.30;3.00;;;20.60;90.00;;;;;;5021104;28;20464;-78
2021/07/13 01:45:29;;;;;;;4.57;2.42;;;20.60;90.50;;;;;;5022153;28;20033;-78
2021/07/13 01:47:56;;;;;;;3.10;2.60;;;20.60;90.40;;;;;;5023651;28;20029;-78
2021/07/13 01:50:22;;;;;;;2.83;2.63;;;20.50;90.90;;;;;;5023818;28;20026;-78
2021/07/13 01:52:48;;;;;;;3.80;2.83;;;20.50;90.70;;;;;;5023848;28;20037;-78
2021/07/13 01:55:14;;;;;;;5.53;2.40;;;20.50;90.70;;;;;;5021641;28;20032;-78
2021/07/13 01:57:40;;;;;;;6.38;2.75;;;20.50;90.60;;;;;;5020999;28;20033;-78
2021/07/13 02:00:10;;;;;;;6.50;2.45;;;20.40;90.70;;;;;;5019506;28;20029;-78
2021/07/13 02:02:36;;;;;;;4.55;2.88;;;20.40;90.70;;;;;;5007065;28;20026;-78
2021/07/13 02:05:05;;;;;;;5.57;3.55;;;20.40;90.70;;;;;;5021427;28;20026;-78
2021/07/13 02:07:38;;;;;;;5.18;2.95;;;20.40;90.80;;;;;;5023149;28;20464;-77
2021/07/13 02:10:06;;;;;;;4.15;2.55;;;20.30;90.80;;;;;;5016967;28;20075;-77
2021/07/13 02:12:33;;;;;;;3.38;3.08;;;20.30;91.00;;;;;;5021337;28;20014;-78
2021/07/13 02:14:59;;;;;;;5.63;3.10;;;20.30;91.10;;;;;;5006963;28;20037;-78
2021/07/13 02:17:29;;;;;;;2.88;2.60;;;20.30;91.30;;;;;;5026951;28;20666;-78
2021/07/13 02:19:57;;;;;;;5.22;2.50;;;20.20;91.40;;;;;;5021691;28;20962;-77
2021/07/13 02:22:22;;;;;;;4.68;2.92;;;20.20;91.30;;;;;;5022279;28;20637;-78
2021/07/13 02:24:48;;;;;;;3.63;2.55;;;20.20;91.20;;;;;;5017841;28;20026;-78
2021/07/13 02:27:18;;;;;;;6.43;2.97;;;20.10;91.20;;;;;;5002913;28;20022;-78
2021/07/13 02:29:52;;;;;;;6.70;3.63;;;20.10;91.20;;;;;;5021180;28;20033;-78
2021/07/13 02:32:44;;;;;;;3.47;2.97;;;20.10;91.20;;;;;;5024431;28;20033;-77
2021/07/13 02:35:12;;;;;;;3.72;2.80;;;20.00;91.30;;;;;;5014129;28;20118;-78
2021/07/13 02:37:39;;;;;;;3.70;3.30;;;20.00;91.30;;;;;;5024024;28;20029;-78
2021/07/13 02:40:07;;;;;;;3.70;3.15;;;20.00;91.40;;;;;;5015474;28;20117;-78
2021/07/13 02:42:33;;;;;;;7.60;3.17;;;19.90;91.50;;;;;;5023204;28;20030;-78
2021/07/13 02:45:00;;;;;;;3.22;2.92;;;19.90;91.60;;;;;;5026027;28;20034;-78
2021/07/13 02:47:27;;;;;;;4.25;2.97;;;19.80;91.60;;;;;;5023426;28;20021;-77
2021/07/13 02:49:55;;;;;;;4.32;3.25;;;19.80;91.60;;;;;;5020044;28;20116;-77
2021/07/13 02:52:24;;;;;;;4.35;2.90;;;19.70;91.80;;;;;;5018709;28;20029;-78
2021/07/13 02:54:56;;;;;;;5.35;3.53;;;19.70;92.00;;;;;;5023688;28;20038;-78
2021/07/13 02:57:23;;;;;;;6.18;3.08;;;19.70;92.20;;;;;;5020430;28;20017;-78
2021/07/13 02:59:51;;;;;;;3.35;3.00;;;19.70;92.00;;;;;;5018205;28;20444;-78
2021/07/13 03:02:20;;;;;;;5.43;3.38;;;19.70;91.80;;;;;;5005991;28;20029;-77
2021/07/13 03:04:46;;;;;;;9.63;3.45;;;19.60;91.70;;;;;;5021424;28;20384;-77
2021/07/13 03:07:12;;;;;;;6.90;3.03;;;19.50;91.80;;;;;;5023075;28;20033;-75
2021/07/13 03:09:38;;;;;;;5.10;3.63;;;19.40;91.90;;;;;;5018472;28;20030;-75
2021/07/13 03:12:08;;;;;;;8.52;3.30;;;19.50;92.20;;;;;;5019895;28;20373;-75
2021/07/13 03:14:36;;;;;;;8.15;3.40;;;19.50;92.00;;;;;;5023812;28;20118;-75
2021/07/13 03:17:02;;;;;;;5.88;3.33;;;19.40;92.20;;;;;;5023930;28;20029;-75
2021/07/13 03:19:27;;;;;;;6.65;3.58;;;19.50;92.30;;;;;;5017575;28;20547;-75
2021/07/13 03:21:56;;;;;;;7.78;3.20;;;19.40;92.30;;;;;;5020321;28;20068;-75
2021/07/13 03:24:24;;;;;;;4.55;3.17;;;19.40;92.50;;;;;;5020776;28;20052;-75
2021/07/13 03:26:51;;;;;;;4.22;3.78;;;19.40;92.50;;;;;;5019015;28;20040;-77
2021/07/13 03:29:18;;;;;;;9.05;3.72;;;19.40;92.50;;;;;;5020111;28;20034;-78
2021/07/13 03:31:45;;;;;;;6.93;3.70;;;19.40;92.60;;;;;;5016904;28;20208;-77
2021/07/13 03:34:10;;;;;;;4.55;4.15;;;19.50;93.00;;;;;;5004043;28;20420;-78
2021/07/13 03:36:37;;;;;;;9.50;6.40;;;19.50;93.00;;;;;;5016771;28;20022;-78
2021/07/13 03:39:07;;;;;;;16.17;5.47;;;19.40;92.60;;;;;;5016918;28;20084;-78
2021/07/13 03:41:33;;;;;;;8.82;4.70;;;19.40;92.90;;;;;;5024571;28;20579;-78
2021/07/13 03:44:04;;;;;;;13.70;10.07;;;19.40;93.20;;;;;;5018117;28;20064;-78
2021/07/13 03:46:37;;;;;;;9.10;4.93;;;19.50;93.10;;;;;;5016121;28;20033;-75
2021/07/13 03:49:05;;;;;;;13.82;4.82;;;19.70;93.10;;;;;;5015708;28;20022;-75
2021/07/13 03:51:44;;;;;;;7.35;4.90;;;19.80;92.90;;;;;;5021734;28;21021;-75
2021/07/13 03:54:13;;;;;;;7.72;4.65;;;20.00;92.80;;;;;;5015996;28;20771;-75
2021/07/13 03:56:39;;;;;;;9.35;3.63;;;20.10;92.70;;;;;;5026237;28;20022;-75
2021/07/13 03:59:05;;;;;;;5.72;4.65;;;20.30;92.40;;;;;;5013237;28;20064;-75
2021/07/13 04:01:31;;;;;;;5.30;4.03;;;20.40;92.20;;;;;;5014508;28;20477;-75
2021/07/13 04:03:56;;;;;;;6.55;4.97;;;20.60;92.00;;;;;;5022553;28;20373;-75
2021/07/13 04:06:22;;;;;;;8.55;6.55;;;20.80;91.80;;;;;;5025771;28;20477;-76
2021/07/13 04:08:48;;;;;;;11.88;5.75;;;20.90;91.70;;;;;;5016557;28;20026;-76
2021/07/13 04:11:14;;;;;;;11.10;7.10;;;21.10;91.80;;;;;;5014240;28;20034;-76
2021/07/13 04:13:39;;;;;;;11.65;8.38;;;21.40;91.50;;;;;;5017298;28;20014;-76
2021/07/13 04:16:05;;;;;;;14.80;7.18;;;21.70;91.10;;;;;;5005188;28;20124;-76
2021/07/13 04:18:30;;;;;;;8.25;5.13;;;21.90;90.60;;;;;;5015217;28;20061;-77
2021/07/13 04:20:56;;;;;;;5.85;4.47;;;22.00;90.30;;;;;;5005804;28;20094;-77
2021/07/13 04:23:21;;;;;;;5.25;4.75;;;22.10;90.10;;;;;;5024300;28;20025;-80
2021/07/13 04:25:47;;;;;;;9.77;7.28;;;22.30;90.10;;;;;;5005271;28;20034;-79
2021/07/13 04:28:13;;;;;;;9.40;4.22;;;22.40;89.40;;;;;;5014126;28;20033;-79
2021/07/13 04:30:38;;;;;;;6.80;5.15;;;22.60;88.90;;;;;;5018581;28;20022;-80
2021/07/13 04:33:04;;;;;;;5.57;5.03;;;22.80;88.60;;;;;;5018022;28;20026;-79
2021/07/13 04:35:30;;;;;;;9.07;4.78;;;23.00;87.80;;;;;;5015952;28;20030;-79
2021/07/13 04:37:55;;;;;;;8.25;4.38;;;23.20;86.70;;;;;;5015212;28;20045;-81
2021/07/13 04:40:21;;;;;;;4.93;3.95;;;23.30;86.00;;;;;;5010333;28;20037;-80
2021/07/13 04:42:47;;;;;;;7.05;4.40;;;23.50;84.90;;;;;;5016309;28;20084;-80
2021/07/13 04:45:12;;;;;;;7.47;4.55;;;23.70;84.70;;;;;;5012065;28;20029;-80
2021/07/13 04:47:38;;;;;;;13.38;7.15;;;23.80;83.40;;;;;;5025942;28;20059;-80
2021/07/13 04:50:05;;;;;;;7.05;4.30;;;23.90;83.30;;;;;;5013709;28;20033;-80
2021/07/13 04:52:30;;;;;;;5.28;4.45;;;24.10;81.80;;;;;;5017954;28;20030;-80
2021/07/13 04:54:56;;;;;;;7.65;4.60;;;24.10;82.10;;;;;;5017344;28;20034;-79
2021/07/13 04:57:21;;;;;;;8.55;5.47;;;24.20;82.40;;;;;;5019117;28;20079;-76
2021/07/13 04:59:47;;;;;;;7.00;3.78;;;24.20;82.40;;;;;;5017734;28;20057;-77
2021/07/13 05:02:12;;;;;;;6.75;5.13;;;24.20;82.00;;;;;;5019709;28;20029;-79
2021/07/13 05:04:38;;;;;;;5.57;4.20;;;24.20;81.50;;;;;;5021914;28;20060;-80
2021/07/13 05:07:03;;;;;;;8.73;5.28;;;24.40;80.80;;;;;;5022845;28;20091;-76
2021/07/13 05:09:29;;;;;;;6.50;3.97;;;24.60;80.60;;;;;;5018496;28;20030;-74
2021/07/13 05:11:55;;;;;;;10.02;5.93;;;24.70;79.50;;;;;;5021961;28;20040;-72
2021/07/13 05:14:20;;;;;;;6.32;4.72;;;25.00;78.40;;;;;;5016837;28;20084;-72
2021/07/13 05:16:46;;;;;;;4.63;3.95;;;25.30;78.20;;;;;;5019290;28;20036;-72
2021/07/13 05:19:14;;;;;;;7.43;4.93;;;25.50;77.00;;;;;;5020272;28;20100;-72
2021/07/13 05:21:43;;;;;;;6.85;5.35;;;25.70;76.60;;;;;;5021239;28;20056;-72
2021/07/13 05:24:09;;;;;;;9.07;5.55;;;25.70;75.80;;;;;;5020886;28;20334;-72
2021/07/13 05:26:35;;;;;;;5.55;5.03;;;25.60;76.00;;;;;;5017662;28;20034;-75
2021/07/13 05:29:04;;;;;;;8.60;6.75;;;25.50;75.70;;;;;;5016698;28;20100;-74
2021/07/13 05:31:29;;;;;;;15.85;11.70;;;25.20;76.10;;;;;;5017490;28;20658;-72
2021/07/13 05:33:57;;;;;;;11.15;7.70;;;24.90;76.60;;;;;;5019490;28;20112;-72
2021/07/13 05:36:24;;;;;;;11.38;5.25;;;24.80;77.20;;;;;;5020323;28;20013;-76
2021/07/13 05:38:49;;;;;;;6.18;4.47;;;24.70;77.70;;;;;;5020209;28;20034;-74
2021/07/13 05:41:15;;;;;;;10.68;5.88;;;24.90;77.80;;;;;;5020311;28;20543;-74
2021/07/13 05:43:41;;;;;;;5.70;4.80;;;24.70;76.10;;;;;;5020482;28;20040;-74
2021/07/13 05:46:07;;;;;;;22.05;13.52;;;24.50;76.90;;;;;;5017822;28;20054;-75
2021/07/13 05:48:33;;;;;;;16.27;7.82;;;24.50;76.90;;;;;;5018288;28;20579;-76
2021/07/13 05:50:58;;;;;;;8.43;4.15;;;24.60;77.00;;;;;;5021811;28;20104;-75
2021/07/13 05:53:24;;;;;;;11.93;4.28;;;24.50;76.50;;;;;;5005023;28;20014;-75
2021/07/13 05:55:50;;;;;;;6.53;4.22;;;24.00;77.60;;;;;;5021295;28;20101;-75
2021/07/13 05:58:19;;;;;;;5.47;4.93;;;23.50;79.20;;;;;;5020489;28;20431;-74
2021/07/13 06:00:46;;;;;;;10.25;8.80;;;23.30;80.20;;;;;;5022086;28;20049;-75
2021/07/13 06:03:11;;;;;;;8.02;5.63;;;23.30;80.80;;;;;;5017035;28;20505;-75
2021/07/13 06:05:38;;;;;;;10.27;6.80;;;23.60;80.60;;;;;;5020989;28;20029;-75
2021/07/13 06:08:04;;;;;;;8.77;6.75;;;23.60;80.40;;;;;;5020438;28;20025;-76
2021/07/13 06:10:29;;;;;;;9.07;4.07;;;23.60;80.90;;;;;;5018597;28;20040;-76
2021/07/13 06:12:55;;;;;;;8.80;4.60;;;23.60;80.40;;;;;;5019596;28;20095;-78
2021/07/13 06:15:20;;;;;;;9.30;5.05;;;23.60;80.90;;;;;;5020833;28;20022;-73
2021/07/13 06:17:46;;;;;;;6.10;4.03;;;23.50;80.70;;;;;;5003729;28;20040;-77
2021/07/13 06:20:12;;;;;;;6.10;4.38;;;23.40;81.10;;;;;;5001953;28;20137;-76
2021/07/13 06:22:38;;;;;;;5.20;4.50;;;23.50;81.40;;;;;;5019767;28;20029;-76
2021/07/13 06:25:05;;;;;;;7.32;4.15;;;23.50;81.80;;;;;;5019718;28;20027;-75
2021/07/13 06:27:31;;;;;;;10.13;4.32;;;23.40;81.30;;;;;;5018426;28;20503;-76
2021/07/13 06:29:56;;;;;;;8.82;4.75;;;23.50;81.60;;;;;;5017251;28;20041;-74
2021/07/13 06:32:22;;;;;;;7.30;3.83;;;23.60;81.30;;;;;;5019070;28;20535;-75
2021/07/13 06:34:47;;;;;;;5.43;3.90;;;23.50;80.80;;;;;;5019475;28;20032;-75
2021/07/13 06:37:13;;;;;;;7.53;5.28;;;23.50;81.50;;;;;;5016389;28;20103;-73
2021/07/13 06:39:39;;;;;;;6.88;3.83;;;23.60;81.80;;;;;;5017542;28;20044;-74
2021/07/13 06:42:04;;;;;;;20.08;16.48;;;23.60;80.90;;;;;;5018391;28;20125;-76
2021/07/13 06:44:30;;;;;;;4.75;4.30;;;23.60;81.10;;;;;;5039575;22;21122;-63
2021/07/13 06:46:55;;;;;;;10.27;6.35;;;23.60;81.30;;;;;;5010035;28;20029;-61
2021/07/13 06:49:21;;;;;;;6.82;3.95;;;23.70;81.30;;;;;;5012667;28;20065;-61
2021/07/13 06:51:46;;;;;;;5.00;4.50;;;23.60;81.10;;;;;;5016512;28;20052;-61
2021/07/13 06:54:12;;;;;;;7.10;4.63;;;23.40;81.60;;;;;;5020750;28;20022;-61
2021/07/13 06:56:37;;;;;;;6.78;5.65;;;23.30;82.10;;;;;;5024625;28;20044;-61
2021/07/13 06:59:03;;;;;;;8.43;5.38;;;23.40;82.40;;;;;;5019648;28;20037;-61
2021/07/13 07:01:28;;;;;;;7.15;4.55;;;23.40;82.50;;;;;;5027844;28;20026;-61
2021/07/13 07:03:54;;;;;;;6.50;3.92;;;23.30;82.80;;;;;;5024300;28;20029;-61
2021/07/13 07:06:20;;;;;;;6.28;4.43;;;23.30;83.00;;;;;;5023646;28;20045;-61
2021/07/13 07:08:45;;;;;;;8.50;4.97;;;23.30;83.40;;;;;;5023111;28;20087;-61
2021/07/13 07:11:11;;;;;;;5.45;4.07;;;23.30;83.50;;;;;;5026905;28;20474;-61
2021/07/13 07:13:37;;;;;;;6.75;4.25;;;23.30;83.80;;;;;;5021720;28;20540;-61
2021/07/13 07:16:02;;;;;;;8.68;4.78;;;23.20;84.00;;;;;;5024327;28;20067;-61
2021/07/13 07:18:28;;;;;;;6.82;5.40;;;23.20;84.50;;;;;;5024002;28;20022;-62
2021/07/13 07:20:53;;;;;;;5.28;4.78;;;23.20;84.70;;;;;;5026731;28;20100;-61
2021/07/13 07:23:19;;;;;;;4.88;4.43;;;23.20;85.10;;;;;;5020352;28;20128;-61
2021/07/13 07:25:45;;;;;;;8.13;5.57;;;23.20;85.30;;;;;;5013250;28;20021;-61
2021/07/13 07:28:11;;;;;;;6.97;4.82;;;23.20;85.40;;;;;;5019973;28;20033;-61
2021/07/13 07:30:37;;;;;;;5.70;5.20;;;23.30;85.30;;;;;;5021520;28;20486;-61
2021/07/13 07:33:03;;;;;;;6.90;4.95;;;23.40;85.30;;;;;;5021826;28;20033;-61
2021/07/13 07:35:29;;;;;;;6.82;4.75;;;23.50;85.00;;;;;;5015945;28;20425;-61
2021/07/13 07:37:54;;;;;;;10.68;4.88;;;23.50;85.10;;;;;;5023903;28;20075;-63
2021/07/13 07:40:21;;;;;;;6.72;5.90;;;23.50;85.10;;;;;;5021703;28;20107;-64
2021/07/13 07:42:52;;;;;;;7.85;5.63;;;23.50;85.00;;;;;;5018712;28;20470;-62
2021/07/13 07:45:19;;;;;;;7.75;5.85;;;23.50;85.30;;;;;;5020734;28;20056;-61
2021/07/13 07:47:45;;;;;;;7.00;6.30;;;23.70;84.80;;;;;;5025659;28;20025;-62
2021/07/13 07:50:12;;;;;;;8.27;5.72;;;23.90;84.70;;;;;;5019677;28;20037;-61
2021/07/13 07:52:38;;;;;;;6.03;5.43;;;23.90;84.40;;;;;;5020930;28;20030;-61
2021/07/13 07:55:09;;;;;;;7.43;5.20;;;24.00;84.40;;;;;;5023877;28;20386;-61
2021/07/13 07:57:35;;;;;;;9.13;6.18;;;24.20;84.50;;;;;;5024237;28;20022;-61
2021/07/13 08:00:03;;;;;;;15.18;7.18;;;24.40;83.90;;;;;;5016446;28;20041;-62
2021/07/13 08:02:29;;;;;;;8.52;7.60;;;24.50;83.70;;;;;;5014662;28;20048;-61
2021/07/13 08:04:54;;;;;;;8.55;6.70;;;24.70;82.80;;;;;;5024103;28;20025;-62
2021/07/13 08:07:20;;;;;;;7.57;6.45;;;24.70;82.20;;;;;;5018012;28;20029;-61
2021/07/13 08:09:46;;;;;;;7.55;6.65;;;24.70;82.00;;;;;;5023203;28;20133;-61
2021/07/13 08:12:11;;;;;;;7.47;6.38;;;24.80;82.50;;;;;;5024784;28;20029;-61
2021/07/13 08:14:37;;;;;;;6.97;6.28;;;25.10;81.70;;;;;;5019951;28;20044;-61
2021/07/13 08:17:03;;;;;;;6.85;5.53;;;25.30;81.00;;;;;;5025569;28;20108;-61
2021/07/13 08:19:28;;;;;;;7.38;6.38;;;25.50;80.70;;;;;;5021240;28;20360;-62
2021/07/13 08:21:54;;;;;;;8.55;6.75;;;25.60;77.80;;;;;;5020548;28;20523;-61
2021/07/13 08:24:20;;;;;;;7.88;6.10;;;25.60;78.10;;;;;;5024304;28;20029;-62
2021/07/13 08:26:46;;;;;;;6.10;5.07;;;25.80;78.50;;;;;;5025247;28;20034;-62
2021/07/13 08:29:12;;;;;;;5.85;5.35;;;25.90;76.70;;;;;;5015434;28;20398;-61
2021/07/13 08:31:38;;;;;;;6.57;5.38;;;26.10;74.10;;;;;;5021918;28;20021;-61
2021/07/13 08:34:03;;;;;;;5.53;4.30;;;26.00;73.80;;;;;;5018802;28;20017;-61
2021/07/13 08:36:29;;;;;;;8.35;5.85;;;26.10;73.10;;;;;;5018835;28;20021;-61
2021/07/13 08:38:55;;;;;;;6.45;5.53;;;26.00;74.10;;;;;;5019765;28;20056;-61
2021/07/13 08:41:21;;;;;;;6.10;5.43;;;25.90;74.30;;;;;;5021127;28;20045;-62
2021/07/13 08:43:48;;;;;;;5.30;4.80;;;26.00;74.90;;;;;;5020439;28;20033;-61
2021/07/13 08:46:15;;;;;;;8.35;5.72;;;26.10;73.10;;;;;;5024725;28;20084;-62
2021/07/13 08:48:40;;;;;;;7.55;5.65;;;26.20;74.20;;;;;;5022321;28;20063;-62
2021/07/13 08:51:06;;;;;;;5.07;4.55;;;26.30;73.10;;;;;;5021835;28;20033;-61
2021/07/13 08:53:32;;;;;;;6.45;5.07;;;26.40;70.50;;;;;;5024246;28;20052;-61
2021/07/13 08:55:58;;;;;;;9.18;4.18;;;26.30;70.40;;;;;;5023481;28;20026;-62
2021/07/13 08:58:25;;;;;;;4.60;4.22;;;26.30;71.00;;;;;;5021467;28;20544;-62
2021/07/13 09:00:52;;;;;;;5.78;5.10;;;26.30;71.70;;;;;;5025746;28;20072;-61
2021/07/13 09:03:20;;;;;;;6.78;4.53;;;26.40;71.10;;;;;;5026399;28;20129;-62
2021/07/13 09:05:45;;;;;;;4.60;4.18;;;26.40;71.70;;;;;;5019043;28;20038;-62
2021/07/13 09:08:21;;;;;;;4.28;3.88;;;26.60;70.10;;;;;;5024004;28;20103;-61
2021/07/13 09:11:00;;;;;;;;;;;26.70;66.60;;;;;;5026333;28;20160;-61
2021/07/13 09:13:28;;;;;;;3.20;2.90;;;26.60;66.10;;;;;;5023990;28;19913;-62
2021/07/13 09:15:58;;;;;;;3.45;3.15;;;26.30;67.30;;;;;;5021476;28;20022;-62
2021/07/13 09:18:29;;;;;;;3.63;3.38;;;26.40;68.90;;;;;;5023463;28;20029;-62
2021/07/13 09:21:08;;;;;;;7.35;4.13;;;26.70;67.70;;;;;;5021170;28;20032;-61
2021/07/13 09:23:33;;;;;;;4.88;3.15;;;26.80;66.90;;;;;;5019903;28;20029;-62
2021/07/13 09:25:59;;;;;;;3.88;3.30;;;26.80;68.50;;;;;;5023373;28;20547;-61
2021/07/13 09:28:25;;;;;;;4.82;3.70;;;27.00;68.50;;;;;;5021209;28;20029;-62
2021/07/13 09:31:00;;;;;;;5.75;4.05;;;27.10;66.30;;;;;;5021208;28;20033;-62
2021/07/13 09:33:32;;;;;;;3.67;3.40;;;27.20;66.10;;;;;;5020015;28;20044;-62
2021/07/13 09:36:02;;;;;;;5.43;4.20;;;27.20;64.10;;;;;;5019972;28;20426;-62
2021/07/13 09:38:29;;;;;;;4.63;3.75;;;27.10;64.20;;;;;;5018081;28;20323;-61
2021/07/13 09:41:05;;;;;;;5.68;4.60;;;26.90;65.60;;;;;;5022445;28;20351;-62
2021/07/13 09:43:59;;;;;;;8.43;3.83;;;26.90;66.40;;;;;;5017962;28;20475;-62
2021/07/13 09:46:25;;;;;;;3.88;3.58;;;27.00;66.60;;;;;;5025079;28;20029;-62
2021/07/13 09:49:13;;;;;;;6.63;3.75;;;27.20;64.70;;;;;;5025802;28;20033;-61
2021/07/13 09:51:42;;;;;;;3.22;3.00;;;27.20;66.90;;;;;;5023591;28;20482;-61
2021/07/13 09:54:44;;;;;;;4.70;2.63;;;27.20;64.40;;;;;;5025570;28;20033;-61
2021/07/13 09:57:16;;;;;;;2.28;2.15;;;27.30;63.10;;;;;;5023249;28;20041;-61
2021/07/13 09:59:46;;;;;;;5.30;2.67;;;27.30;62.80;;;;;;5021945;28;20061;-62
2021/07/13 10:02:15;;;;;;;5.03;3.13;;;27.10;61.60;;;;;;5024895;28;20120;-62
2021/07/13 10:04:40;;;;;;;4.45;3.92;;;27.00;63.60;;;;;;5026891;28;20121;-62
2021/07/13 10:07:11;;;;;;;2.83;2.58;;;27.10;63.80;;;;;;5023413;28;20108;-61
2021/07/13 10:09:48;;;;;;;5.57;3.13;;;27.20;60.70;;;;;;5027049;28;20041;-62
2021/07/13 10:12:16;;;;;;;5.13;3.03;;;27.40;62.80;;;;;;5028267;28;20462;-62
2021/07/13 10:14:47;;;;;;;3.28;2.67;;;27.50;61.30;;;;;;5017745;28;20096;-62
2021/07/13 10:17:14;;;;;;;2.75;2.55;;;27.60;61.60;;;;;;5020129;28;21332;-62
2021/07/13 10:19:49;;;;;;;4.82;2.67;;;27.60;63.20;;;;;;5021084;28;20041;-62
2021/07/13 10:22:16;;;;;;;3.67;3.08;;;27.70;62.30;;;;;;5012762;28;20073;-62
2021/07/13 10:24:48;;;;;;;2.97;2.78;;;27.90;62.50;;;;;;5016721;28;20041;-62
2021/07/13 10:27:16;;;;;;;10.98;5.35;;;28.00;62.80;;;;;;5018065;28;20029;-62
2021/07/13 10:29:42;;;;;;;12.68;9.55;;;28.00;61.20;;;;;;5008774;28;20198;-62
2021/07/13 10:32:28;;;;;;;4.70;2.63;;;27.90;59.80;;;;;;5010477;28;20037;-61
2021/07/13 10:35:17;;;;;;;5.00;2.90;;;27.70;59.10;;;;;;5006851;28;20244;-62
2021/07/13 10:37:47;;;;;;;4.40;2.83;;;27.50;59.50;;;;;;5018864;28;20040;-62
2021/07/13 10:40:33;;;;;;;4.20;2.97;;;27.30;60.60;;;;;;5012481;28;20036;-62
2021/07/13 10:43:05;;;;;;;;;;;27.40;60.90;;;;;;5014638;28;20120;-62
2021/07/13 10:45:42;;;;;;;5.43;4.55;;;27.40;60.70;;;;;;5016877;28;19967;-61
2021/07/13 10:48:22;;;;;;;4.50;4.10;;;27.50;60.50;;;;;;5019334;28;20509;-61
2021/07/13 10:50:54;;;;;;;8.40;5.60;;;27.60;60.60;;;;;;5024997;28;20025;-61
2021/07/13 10:53:30;;;;;;;3.03;2.83;;;27.70;60.90;;;;;;5023910;28;20024;-61
2021/07/13 10:56:03;;;;;;;3.38;3.00;;;27.80;61.00;;;;;;5021314;28;20026;-61
2021/07/13 10:58:30;;;;;;;7.85;3.47;;;28.00;59.90;;;;;;5019584;28;20022;-61
2021/07/13 11:01:10;;;;;;;5.60;5.10;;;28.00;58.70;;;;;;5021666;28;20048;-61
2021/07/13 11:03:36;;;;;;;10.25;9.25;;;28.10;59.10;;;;;;5019053;28;20038;-61
2021/07/13 11:06:02;;;;;;;2.95;2.75;;;28.20;58.70;;;;;;5022589;28;20497;-61
2021/07/13 11:08:40;;;;;;;15.27;8.18;;;28.30;57.40;;;;;;5017667;28;20034;-61
2021/07/13 11:11:29;;;;;;;8.60;6.53;;;28.40;59.00;;;;;;5024100;28;20486;-61
2021/07/13 11:14:02;;;;;;;8.38;6.35;;;28.50;58.40;;;;;;5018213;28;20045;-61
2021/07/13 11:16:31;;;;;;;3.38;3.10;;;28.60;57.50;;;;;;5026655;28;20252;-61
2021/07/13 11:18:58;;;;;;;9.27;8.10;;;28.60;56.90;;;;;;5019433;28;20423;-61
2021/07/13 11:21:28;;;;;;;5.90;4.65;;;28.40;57.30;;;;;;5026558;28;20382;-62
2021/07/13 11:24:09;;;;;;;6.88;3.80;;;28.50;58.10;;;;;;5025705;28;20026;-61
2021/07/13 11:26:37;;;;;;;4.28;3.20;;;28.60;58.30;;;;;;5020965;28;20029;-61
2021/07/13 11:29:06;;;;;;;6.72;2.90;;;28.70;59.20;;;;;;5022128;28;20513;-61
2021/07/13 11:31:36;;;;;;;4.28;3.88;;;28.80;58.00;;;;;;5021935;28;20504;-61
2021/07/13 11:34:14;;;;;;;6.15;3.17;;;28.70;56.30;;;;;;5023295;28;20028;-61
2021/07/13 11:37:06;;;;;;;16.90;14.38;;;28.70;56.30;;;;;;5017545;28;20092;-61
2021/07/13 11:39:34;;;;;;;6.18;5.68;;;28.70;55.10;;;;;;5022676;28;20120;-61
2021/07/13 11:42:08;;;;;;;9.38;8.52;;;28.70;54.30;;;;;;5021728;28;20033;-61
2021/07/13 11:44:38;;;;;;;10.63;7.40;;;28.60;55.00;;;;;;5024160;28;20018;-61
2021/07/13 11:47:09;;;;;;;14.70;11.73;;;28.60;55.90;;;;;;5022194;28;20021;-61
2021/07/13 11:49:35;;;;;;;12.48;9.43;;;28.50;55.30;;;;;;5023866;28;20030;-61
2021/07/13 11:52:04;;;;;;;10.68;8.50;;;28.40;55.90;;;;;;5023877;28;20108;-61
2021/07/13 11:54:34;;;;;;;14.43;9.25;;;28.30;55.80;;;;;;5017713;28;20609;-61
2021/07/13 11:57:02;;;;;;;6.55;4.97;;;28.20;56.10;;;;;;5020785;28;20033;-61
2021/07/13 11:59:29;;;;;;;4.63;4.22;;;28.10;56.90;;;;;;5023975;28;20414;-61
2021/07/13 12:02:03;;;;;;;16.08;14.40;;;28.20;56.40;;;;;;5022362;28;20040;-61
2021/07/13 12:04:32;;;;;;;3.90;3.60;;;28.10;56.00;;;;;;5023474;28;20021;-61
2021/07/13 12:07:00;;;;;;;16.30;14.10;;;28.00;57.60;;;;;;5022366;28;20040;-61
2021/07/13 12:09:30;;;;;;;9.13;8.23;;;28.00;57.20;;;;;;5015157;28;20029;-61
2021/07/13 12:12:03;;;;;;;4.38;2.97;;;28.10;56.60;;;;;;5022012;28;20036;-61
2021/07/13 12:14:29;;;;;;;3.80;3.50;;;28.10;56.10;;;;;;5023591;28;20029;-61
2021/07/13 12:16:57;;;;;;;3.38;3.08;;;28.00;56.20;;;;;;5025628;28;20101;-61
2021/07/13 12:19:27;;;;;;;9.63;4.50;;;28.00;57.10;;;;;;5018883;28;20203;-61
2021/07/13 12:21:58;;;;;;;4.72;4.32;;;28.10;57.30;;;;;;5021028;28;20563;-61
2021/07/13 12:24:34;;;;;;;4.20;3.80;;;28.50;56.90;;;;;;5025194;28;20017;-61
2021/07/13 12:27:03;;;;;;;3.17;2.88;;;28.50;56.80;;;;;;5022998;28;20116;-61
2021/07/13 12:29:36;;;;;;;5.32;3.80;;;28.70;57.00;;;;;;5019748;28;20029;-61
2021/07/13 12:32:04;;;;;;;6.15;4.65;;;28.70;56.00;;;;;;5022740;28;20564;-61
2021/07/13 12:34:32;;;;;;;6.95;5.57;;;28.60;56.70;;;;;;5016979;28;20421;-61
2021/07/13 12:37:12;;;;;;;22.77;19.92;;;28.50;57.10;;;;;;5025082;28;20025;-61
2021/07/13 12:39:41;;;;;;;4.60;4.25;;;28.60;56.20;;;;;;5022209;28;20025;-62
2021/07/13 12:42:21;;;;;;;6.07;4.68;;;28.50;56.20;;;;;;5023365;28;20063;-61
2021/07/13 12:44:55;;;;;;;4.78;4.22;;;28.40;56.70;;;;;;5021327;28;20060;-61
2021/07/13 12:47:28;;;;;;;4.57;3.40;;;28.50;57.80;;;;;;5020788;28;20625;-61
2021/07/13 12:50:16;;;;;;;4.40;4.00;;;28.70;56.30;;;;;;5022484;28;20030;-61
2021/07/13 12:53:05;;;;;;;4.72;4.25;;;28.70;57.30;;;;;;5023976;28;20034;-61